sensor_id;sensor_type;location;lat;lon;timestamp;temperature;humidity
21602;DHT22;10963;50.934;4.668;2024-01-06T00:00:38;8.80;99.90
21602;DHT22;10963;50.934;4.668;2024-01-06T00:03:04;8.80;99.90
21602;DHT22;10963;50.934;4.668;2024-01-06T00:05:30;8.80;99.90
21602;DHT22;10963;50.934;4.668;2024-01-06T00:07:55;8.80;99.90
21602;DHT22;10963;50.934;4.668;2024-01-06T00:10:24;8.90;99.90
21602;DHT22;10963;50.934;4.668;2024-01-06T00:12:50;9.00;99.90
21602;DHT22;10963;50.934;4.668;2024-01-06T00:15:18;8.90;99.90
21602;DHT22;10963;50.934;4.668;2024-01-06T00:17:46;8.90;99.90
21602;DHT22;10963;50.934;4.668;2024-01-06T00:20:14;9.10;99.90
21602;DHT22;10963;50.934;4.668;2024-01-06T00:22:42;9.10;99.90
21602;DHT22;10963;50.934;4.668;2024-01-06T00:25:09;9.10;99.90
21602;DHT22;10963;50.934;4.668;2024-01-06T00:27:35;9.10;99.90
21602;DHT22;10963;50.934;4.668;2024-01-06T00:30:01;8.90;99.90
21602;DHT22;10963;50.934;4.668;2024-01-06T00:32:26;8.90;99.90
21602;DHT22;10963;50.934;4.668;2024-01-06T00:34:54;8.80;99.90
21602;DHT22;10963;50.934;4.668;2024-01-06T00:37:22;9.00;99.90
21602;DHT22;10963;50.934;4.668;2024-01-06T00:39:50;8.80;99.90
21602;DHT22;10963;50.934;4.668;2024-01-06T00:42:16;8.70;99.90
21602;DHT22;10963;50.934;4.668;2024-01-06T00:44:42;8.80;99.90
21602;DHT22;10963;50.934;4.668;2024-01-06T00:47:10;8.80;99.90
21602;DHT22;10963;50.934;4.668;2024-01-06T00:49:36;8.80;99.90
21602;DHT22;10963;50.934;4.668;2024-01-06T00:52:01;8.80;99.90
21602;DHT22;10963;50.934;4.668;2024-01-06T00:54:32;8.80;99.90
21602;DHT22;10963;50.934;4.668;2024-01-06T00:57:00;8.80;99.90
21602;DHT22;10963;50.934;4.668;2024-01-06T00:59:26;8.80;99.90
21602;DHT22;10963;50.934;4.668;2024-01-06T01:01:52;8.80;99.90
21602;DHT22;10963;50.934;4.668;2024-01-06T01:04:21;8.90;99.90
21602;DHT22;10963;50.934;4.668;2024-01-06T01:06:47;8.80;99.90
21602;DHT22;10963;50.934;4.668;2024-01-06T01:09:15;8.90;99.90
21602;DHT22;10963;50.934;4.668;2024-01-06T01:11:41;8.80;99.90
21602;DHT22;10963;50.934;4.668;2024-01-06T01:14:11;8.80;99.90
21602;DHT22;10963;50.934;4.668;2024-01-06T01:16:37;8.80;99.90
21602;DHT22;10963;50.934;4.668;2024-01-06T01:19:03;8.70;99.90
21602;DHT22;10963;50.934;4.668;2024-01-06T01:21:29;8.80;99.90
21602;DHT22;10963;50.934;4.668;2024-01-06T01:23:56;8.80;99.90
21602;DHT22;10963;50.934;4.668;2024-01-06T01:26:25;8.90;99.90
21602;DHT22;10963;50.934;4.668;2024-01-06T01:28:51;8.80;99.90
21602;DHT22;10963;50.934;4.668;2024-01-06T01:31:16;8.70;99.90
21602;DHT22;10963;50.934;4.668;2024-01-06T01:33:42;8.80;99.90
21602;DHT22;10963;50.934;4.668;2024-01-06T01:36:08;8.70;99.90
21602;DHT22;10963;50.934;4.668;2024-01-06T01:38:34;8.80;99.90
21602;DHT22;10963;50.934;4.668;2024-01-06T01:40:59;8.80;99.90
21602;DHT22;10963;50.934;4.668;2024-01-06T01:43:27;8.90;99.90
21602;DHT22;10963;50.934;4.668;2024-01-06T01:45:56;8.80;99.90
21602;DHT22;10963;50.934;4.668;2024-01-06T01:48:23;8.80;99.90
21602;DHT22;10963;50.934;4.668;2024-01-06T01:50:52;8.60;99.90
21602;DHT22;10963;50.934;4.668;2024-01-06T01:53:22;8.70;99.90
21602;DHT22;10963;50.934;4.668;2024-01-06T01:55:50;8.80;99.90
21602;DHT22;10963;50.934;4.668;2024-01-06T01:58:19;8.80;99.90
21602;DHT22;10963;50.934;4.668;2024-01-06T02:00:45;8.70;99.90
21602;DHT22;10963;50.934;4.668;2024-01-06T02:03:13;8.70;99.90
21602;DHT22;10963;50.934;4.668;2024-01-06T02:05:39;8.80;99.90
21602;DHT22;10963;50.934;4.668;2024-01-06T02:08:05;8.80;99.90
21602;DHT22;10963;50.934;4.668;2024-01-06T02:10:34;8.80;99.90
21602;DHT22;10963;50.934;4.668;2024-01-06T02:13:14;8.90;99.90
21602;DHT22;10963;50.934;4.668;2024-01-06T02:15:40;8.90;99.90
21602;DHT22;10963;50.934;4.668;2024-01-06T02:18:08;9.00;99.90
21602;DHT22;10963;50.934;4.668;2024-01-06T02:20:34;9.00;99.90
21602;DHT22;10963;50.934;4.668;2024-01-06T02:23:00;8.90;99.90
21602;DHT22;10963;50.934;4.668;2024-01-06T02:25:26;9.00;99.90
21602;DHT22;10963;50.934;4.668;2024-01-06T02:27:52;8.90;99.90
21602;DHT22;10963;50.934;4.668;2024-01-06T02:30:18;9.00;99.90
21602;DHT22;10963;50.934;4.668;2024-01-06T02:32:43;8.70;99.90
21602;DHT22;10963;50.934;4.668;2024-01-06T02:35:13;8.70;99.90
21602;DHT22;10963;50.934;4.668;2024-01-06T02:37:39;8.70;99.90
21602;DHT22;10963;50.934;4.668;2024-01-06T02:40:05;8.80;99.90
21602;DHT22;10963;50.934;4.668;2024-01-06T02:42:36;8.70;99.90
21602;DHT22;10963;50.934;4.668;2024-01-06T02:45:02;8.70;99.90
21602;DHT22;10963;50.934;4.668;2024-01-06T02:47:30;8.60;99.90
21602;DHT22;10963;50.934;4.668;2024-01-06T02:49:58;8.60;99.90
21602;DHT22;10963;50.934;4.668;2024-01-06T02:52:28;8.60;99.90
21602;DHT22;10963;50.934;4.668;2024-01-06T02:54:56;8.60;99.90
21602;DHT22;10963;50.934;4.668;2024-01-06T02:57:22;8.60;99.90
21602;DHT22;10963;50.934;4.668;2024-01-06T02:59:47;8.80;99.90
21602;DHT22;10963;50.934;4.668;2024-01-06T03:02:13;8.80;99.90
21602;DHT22;10963;50.934;4.668;2024-01-06T03:04:39;8.80;99.90
21602;DHT22;10963;50.934;4.668;2024-01-06T03:07:07;8.70;99.90
21602;DHT22;10963;50.934;4.668;2024-01-06T03:09:35;8.80;99.90
21602;DHT22;10963;50.934;4.668;2024-01-06T03:12:01;8.70;99.90
21602;DHT22;10963;50.934;4.668;2024-01-06T03:14:27;8.60;99.90
21602;DHT22;10963;50.934;4.668;2024-01-06T03:16:53;8.60;99.90
21602;DHT22;10963;50.934;4.668;2024-01-06T03:19:19;8.60;99.90
21602;DHT22;10963;50.934;4.668;2024-01-06T03:21:47;8.50;99.90
21602;DHT22;10963;50.934;4.668;2024-01-06T03:24:12;8.70;99.90
21602;DHT22;10963;50.934;4.668;2024-01-06T03:26:38;8.80;99.90
21602;DHT22;10963;50.934;4.668;2024-01-06T03:29:06;8.70;99.90
21602;DHT22;10963;50.934;4.668;2024-01-06T03:31:32;8.80;99.90
21602;DHT22;10963;50.934;4.668;2024-01-06T03:33:59;8.60;99.90
21602;DHT22;10963;50.934;4.668;2024-01-06T03:36:25;8.60;99.90
21602;DHT22;10963;50.934;4.668;2024-01-06T03:38:51;8.60;99.90
21602;DHT22;10963;50.934;4.668;2024-01-06T03:41:16;8.50;99.90
21602;DHT22;10963;50.934;4.668;2024-01-06T03:43:44;8.40;99.90
21602;DHT22;10963;50.934;4.668;2024-01-06T03:46:12;8.40;99.90
21602;DHT22;10963;50.934;4.668;2024-01-06T03:48:40;8.20;99.90
21602;DHT22;10963;50.934;4.668;2024-01-06T03:51:07;8.30;99.90
21602;DHT22;10963;50.934;4.668;2024-01-06T03:53:37;8.20;99.90
21602;DHT22;10963;50.934;4.668;2024-01-06T03:56:04;8.30;99.90
21602;DHT22;10963;50.934;4.668;2024-01-06T03:58:32;8.30;99.90
21602;DHT22;10963;50.934;4.668;2024-01-06T04:00:57;8.40;99.90
21602;DHT22;10963;50.934;4.668;2024-01-06T04:03:23;8.40;99.90
21602;DHT22;10963;50.934;4.668;2024-01-06T04:05:49;8.20;99.90
21602;DHT22;10963;50.934;4.668;2024-01-06T04:08:19;8.20;99.90
21602;DHT22;10963;50.934;4.668;2024-01-06T04:10:47;8.30;99.90
21602;DHT22;10963;50.934;4.668;2024-01-06T04:13:14;8.30;99.90
21602;DHT22;10963;50.934;4.668;2024-01-06T04:15:40;8.10;99.90
21602;DHT22;10963;50.934;4.668;2024-01-06T04:18:06;8.10;99.90
21602;DHT22;10963;50.934;4.668;2024-01-06T04:20:32;8.10;99.90
21602;DHT22;10963;50.934;4.668;2024-01-06T04:23:00;8.10;99.90
21602;DHT22;10963;50.934;4.668;2024-01-06T04:25:28;8.00;99.90
21602;DHT22;10963;50.934;4.668;2024-01-06T04:27:56;8.00;99.90
21602;DHT22;10963;50.934;4.668;2024-01-06T04:30:22;8.00;99.90
21602;DHT22;10963;50.934;4.668;2024-01-06T04:32:48;8.00;99.90
21602;DHT22;10963;50.934;4.668;2024-01-06T04:35:14;8.00;99.90
21602;DHT22;10963;50.934;4.668;2024-01-06T04:37:42;7.90;99.90
21602;DHT22;10963;50.934;4.668;2024-01-06T04:40:15;7.90;99.90
21602;DHT22;10963;50.934;4.668;2024-01-06T04:42:41;8.00;99.90
21602;DHT22;10963;50.934;4.668;2024-01-06T04:45:07;8.10;99.90
21602;DHT22;10963;50.934;4.668;2024-01-06T04:47:37;8.10;99.90
21602;DHT22;10963;50.934;4.668;2024-01-06T04:50:05;8.10;99.90
21602;DHT22;10963;50.934;4.668;2024-01-06T04:52:34;8.00;99.90
21602;DHT22;10963;50.934;4.668;2024-01-06T04:55:02;8.00;99.90
21602;DHT22;10963;50.934;4.668;2024-01-06T04:57:28;8.10;99.90
21602;DHT22;10963;50.934;4.668;2024-01-06T04:59:53;8.00;99.90
21602;DHT22;10963;50.934;4.668;2024-01-06T05:02:21;8.00;99.90
21602;DHT22;10963;50.934;4.668;2024-01-06T05:04:47;8.00;99.90
21602;DHT22;10963;50.934;4.668;2024-01-06T05:07:15;8.10;99.90
21602;DHT22;10963;50.934;4.668;2024-01-06T05:09:43;8.10;99.90
21602;DHT22;10963;50.934;4.668;2024-01-06T05:12:11;8.10;99.90
21602;DHT22;10963;50.934;4.668;2024-01-06T05:14:37;8.30;99.90
21602;DHT22;10963;50.934;4.668;2024-01-06T05:17:03;8.30;99.90
21602;DHT22;10963;50.934;4.668;2024-01-06T05:19:29;8.10;99.90
21602;DHT22;10963;50.934;4.668;2024-01-06T05:21:55;8.10;99.90
21602;DHT22;10963;50.934;4.668;2024-01-06T05:24:25;8.30;99.90
21602;DHT22;10963;50.934;4.668;2024-01-06T05:26:51;8.30;99.90
21602;DHT22;10963;50.934;4.668;2024-01-06T05:29:17;8.10;99.90
21602;DHT22;10963;50.934;4.668;2024-01-06T05:31:45;8.10;99.90
21602;DHT22;10963;50.934;4.668;2024-01-06T05:34:12;7.90;99.90
21602;DHT22;10963;50.934;4.668;2024-01-06T05:36:40;7.90;99.90
21602;DHT22;10963;50.934;4.668;2024-01-06T05:39:10;8.00;99.90
21602;DHT22;10963;50.934;4.668;2024-01-06T05:41:42;7.90;99.90
21602;DHT22;10963;50.934;4.668;2024-01-06T05:44:07;7.80;99.90
21602;DHT22;10963;50.934;4.668;2024-01-06T05:46:35;7.90;99.90
21602;DHT22;10963;50.934;4.668;2024-01-06T05:49:01;7.90;99.90
21602;DHT22;10963;50.934;4.668;2024-01-06T05:51:29;7.90;99.90
21602;DHT22;10963;50.934;4.668;2024-01-06T05:53:54;7.90;99.90
21602;DHT22;10963;50.934;4.668;2024-01-06T05:56:27;8.10;99.90
21602;DHT22;10963;50.934;4.668;2024-01-06T05:58:55;8.00;99.90
21602;DHT22;10963;50.934;4.668;2024-01-06T06:01:21;7.90;99.90
21602;DHT22;10963;50.934;4.668;2024-01-06T06:03:50;7.70;99.90
21602;DHT22;10963;50.934;4.668;2024-01-06T06:06:18;7.60;99.90
21602;DHT22;10963;50.934;4.668;2024-01-06T06:08:48;7.60;99.90
21602;DHT22;10963;50.934;4.668;2024-01-06T06:11:14;7.50;99.90
21602;DHT22;10963;50.934;4.668;2024-01-06T06:13:43;7.50;99.90
21602;DHT22;10963;50.934;4.668;2024-01-06T06:16:10;7.60;99.90
21602;DHT22;10963;50.934;4.668;2024-01-06T06:18:40;7.50;99.90
21602;DHT22;10963;50.934;4.668;2024-01-06T06:21:09;7.20;99.90
21602;DHT22;10963;50.934;4.668;2024-01-06T06:23:35;7.00;99.90
21602;DHT22;10963;50.934;4.668;2024-01-06T06:26:07;6.80;99.90
21602;DHT22;10963;50.934;4.668;2024-01-06T06:28:34;6.80;99.90
21602;DHT22;10963;50.934;4.668;2024-01-06T06:31:03;6.90;99.90
21602;DHT22;10963;50.934;4.668;2024-01-06T06:33:33;7.00;99.90
21602;DHT22;10963;50.934;4.668;2024-01-06T06:35:59;7.00;99.90
21602;DHT22;10963;50.934;4.668;2024-01-06T06:38:25;7.00;99.90
21602;DHT22;10963;50.934;4.668;2024-01-06T06:40:51;7.00;99.90
21602;DHT22;10963;50.934;4.668;2024-01-06T06:43:17;7.00;99.90
21602;DHT22;10963;50.934;4.668;2024-01-06T06:45:43;7.00;99.90
21602;DHT22;10963;50.934;4.668;2024-01-06T06:48:08;7.10;99.90
21602;DHT22;10963;50.934;4.668;2024-01-06T06:50:39;7.10;99.90
21602;DHT22;10963;50.934;4.668;2024-01-06T06:53:07;7.10;99.90
21602;DHT22;10963;50.934;4.668;2024-01-06T06:55:37;7.00;99.90
21602;DHT22;10963;50.934;4.668;2024-01-06T06:58:04;7.00;99.90
21602;DHT22;10963;50.934;4.668;2024-01-06T07:00:30;7.10;99.90
21602;DHT22;10963;50.934;4.668;2024-01-06T07:02:56;7.10;99.90
21602;DHT22;10963;50.934;4.668;2024-01-06T07:05:25;7.20;99.90
21602;DHT22;10963;50.934;4.668;2024-01-06T07:07:51;7.00;99.90
21602;DHT22;10963;50.934;4.668;2024-01-06T07:10:19;6.90;99.90
21602;DHT22;10963;50.934;4.668;2024-01-06T07:12:44;7.00;99.90
21602;DHT22;10963;50.934;4.668;2024-01-06T07:15:10;7.10;99.90
21602;DHT22;10963;50.934;4.668;2024-01-06T07:17:37;7.10;99.90
21602;DHT22;10963;50.934;4.668;2024-01-06T07:20:06;7.10;99.90
21602;DHT22;10963;50.934;4.668;2024-01-06T07:22:33;7.10;99.90
21602;DHT22;10963;50.934;4.668;2024-01-06T07:25:01;7.10;99.90
21602;DHT22;10963;50.934;4.668;2024-01-06T07:27:26;6.90;99.90
21602;DHT22;10963;50.934;4.668;2024-01-06T07:29:52;6.90;99.90
21602;DHT22;10963;50.934;4.668;2024-01-06T07:32:18;6.90;99.90
21602;DHT22;10963;50.934;4.668;2024-01-06T07:34:49;6.90;99.90
21602;DHT22;10963;50.934;4.668;2024-01-06T07:37:15;7.00;99.90
21602;DHT22;10963;50.934;4.668;2024-01-06T07:39:41;7.10;99.90
21602;DHT22;10963;50.934;4.668;2024-01-06T07:42:11;7.00;99.90
21602;DHT22;10963;50.934;4.668;2024-01-06T07:44:39;7.00;99.90
21602;DHT22;10963;50.934;4.668;2024-01-06T07:47:05;7.00;99.90
21602;DHT22;10963;50.934;4.668;2024-01-06T07:49:31;7.10;99.90
21602;DHT22;10963;50.934;4.668;2024-01-06T07:51:57;7.30;99.90
21602;DHT22;10963;50.934;4.668;2024-01-06T07:54:23;7.40;99.90
21602;DHT22;10963;50.934;4.668;2024-01-06T07:56:48;7.20;99.90
21602;DHT22;10963;50.934;4.668;2024-01-06T07:59:14;7.30;99.90
21602;DHT22;10963;50.934;4.668;2024-01-06T08:01:40;7.30;99.90
21602;DHT22;10963;50.934;4.668;2024-01-06T08:04:08;7.20;99.90
21602;DHT22;10963;50.934;4.668;2024-01-06T08:06:34;7.30;99.90
21602;DHT22;10963;50.934;4.668;2024-01-06T08:09:00;7.30;99.90
21602;DHT22;10963;50.934;4.668;2024-01-06T08:11:26;7.30;99.90
21602;DHT22;10963;50.934;4.668;2024-01-06T08:13:54;7.10;99.90
21602;DHT22;10963;50.934;4.668;2024-01-06T08:16:19;7.10;99.90
21602;DHT22;10963;50.934;4.668;2024-01-06T08:18:48;7.10;99.90
21602;DHT22;10963;50.934;4.668;2024-01-06T08:21:17;7.10;99.90
21602;DHT22;10963;50.934;4.668;2024-01-06T08:23:42;7.30;99.90
21602;DHT22;10963;50.934;4.668;2024-01-06T08:26:08;7.40;99.90
21602;DHT22;10963;50.934;4.668;2024-01-06T08:28:34;7.40;99.90
21602;DHT22;10963;50.934;4.668;2024-01-06T08:30:59;7.40;99.90
21602;DHT22;10963;50.934;4.668;2024-01-06T08:33:25;7.30;99.90
21602;DHT22;10963;50.934;4.668;2024-01-06T08:35:51;7.40;99.90
21602;DHT22;10963;50.934;4.668;2024-01-06T08:38:19;7.30;99.90
21602;DHT22;10963;50.934;4.668;2024-01-06T08:40:47;7.30;99.90
21602;DHT22;10963;50.934;4.668;2024-01-06T08:43:16;7.10;99.90
21602;DHT22;10963;50.934;4.668;2024-01-06T08:45:44;7.00;99.90
21602;DHT22;10963;50.934;4.668;2024-01-06T08:48:10;6.90;99.90
21602;DHT22;10963;50.934;4.668;2024-01-06T08:50:37;6.80;99.90
21602;DHT22;10963;50.934;4.668;2024-01-06T08:53:02;6.80;99.90
21602;DHT22;10963;50.934;4.668;2024-01-06T08:55:30;6.80;99.90
21602;DHT22;10963;50.934;4.668;2024-01-06T08:57:56;6.70;99.90
21602;DHT22;10963;50.934;4.668;2024-01-06T09:00:21;6.80;99.90
21602;DHT22;10963;50.934;4.668;2024-01-06T09:02:49;6.80;99.90
21602;DHT22;10963;50.934;4.668;2024-01-06T09:05:17;6.90;99.90
21602;DHT22;10963;50.934;4.668;2024-01-06T09:07:43;6.90;99.90
21602;DHT22;10963;50.934;4.668;2024-01-06T09:10:17;7.00;99.90
21602;DHT22;10963;50.934;4.668;2024-01-06T09:12:42;6.90;99.90
21602;DHT22;10963;50.934;4.668;2024-01-06T09:15:08;6.90;99.90
21602;DHT22;10963;50.934;4.668;2024-01-06T09:17:34;6.70;99.90
21602;DHT22;10963;50.934;4.668;2024-01-06T09:20:00;6.70;99.90
21602;DHT22;10963;50.934;4.668;2024-01-06T09:22:27;6.80;99.90
21602;DHT22;10963;50.934;4.668;2024-01-06T09:24:52;6.70;99.90
21602;DHT22;10963;50.934;4.668;2024-01-06T09:27:19;6.80;99.90
21602;DHT22;10963;50.934;4.668;2024-01-06T09:29:45;6.80;99.90
21602;DHT22;10963;50.934;4.668;2024-01-06T09:32:11;6.80;99.90
21602;DHT22;10963;50.934;4.668;2024-01-06T09:34:38;6.80;99.90
21602;DHT22;10963;50.934;4.668;2024-01-06T09:37:04;6.90;99.90
21602;DHT22;10963;50.934;4.668;2024-01-06T09:39:32;6.90;99.90
21602;DHT22;10963;50.934;4.668;2024-01-06T09:42:00;6.90;99.90
21602;DHT22;10963;50.934;4.668;2024-01-06T09:44:26;6.90;99.90
21602;DHT22;10963;50.934;4.668;2024-01-06T09:46:52;7.00;99.90
21602;DHT22;10963;50.934;4.668;2024-01-06T09:49:23;7.10;99.90
21602;DHT22;10963;50.934;4.668;2024-01-06T09:51:55;7.20;99.90
21602;DHT22;10963;50.934;4.668;2024-01-06T09:54:23;7.00;99.90
21602;DHT22;10963;50.934;4.668;2024-01-06T09:56:53;6.90;99.90
21602;DHT22;10963;50.934;4.668;2024-01-06T09:59:21;6.90;99.90
21602;DHT22;10963;50.934;4.668;2024-01-06T10:01:49;6.70;99.90
21602;DHT22;10963;50.934;4.668;2024-01-06T10:04:15;6.80;99.90
21602;DHT22;10963;50.934;4.668;2024-01-06T10:06:41;6.90;99.90
21602;DHT22;10963;50.934;4.668;2024-01-06T10:09:07;6.90;99.90
21602;DHT22;10963;50.934;4.668;2024-01-06T10:11:35;6.80;99.90
21602;DHT22;10963;50.934;4.668;2024-01-06T10:14:03;6.80;99.90
21602;DHT22;10963;50.934;4.668;2024-01-06T10:16:29;6.80;99.90
21602;DHT22;10963;50.934;4.668;2024-01-06T10:18:57;6.80;99.90
21602;DHT22;10963;50.934;4.668;2024-01-06T10:21:23;6.80;99.90
21602;DHT22;10963;50.934;4.668;2024-01-06T10:23:50;6.60;99.90
21602;DHT22;10963;50.934;4.668;2024-01-06T10:26:16;6.40;99.90
21602;DHT22;10963;50.934;4.668;2024-01-06T10:28:45;6.60;99.90
21602;DHT22;10963;50.934;4.668;2024-01-06T10:31:11;6.60;99.90
21602;DHT22;10963;50.934;4.668;2024-01-06T10:33:37;6.60;99.90
21602;DHT22;10963;50.934;4.668;2024-01-06T10:36:05;6.60;99.90
21602;DHT22;10963;50.934;4.668;2024-01-06T10:38:33;6.50;99.90
21602;DHT22;10963;50.934;4.668;2024-01-06T10:41:01;6.60;99.90
21602;DHT22;10963;50.934;4.668;2024-01-06T10:43:37;6.70;99.90
21602;DHT22;10963;50.934;4.668;2024-01-06T10:46:09;6.70;99.90
21602;DHT22;10963;50.934;4.668;2024-01-06T10:48:41;6.60;99.90
21602;DHT22;10963;50.934;4.668;2024-01-06T10:51:12;6.70;99.90
21602;DHT22;10963;50.934;4.668;2024-01-06T10:53:40;6.60;99.90
21602;DHT22;10963;50.934;4.668;2024-01-06T10:56:07;6.60;99.90
21602;DHT22;10963;50.934;4.668;2024-01-06T10:58:36;6.50;99.90
21602;DHT22;10963;50.934;4.668;2024-01-06T11:01:11;6.60;99.90
21602;DHT22;10963;50.934;4.668;2024-01-06T11:03:38;6.50;99.90
21602;DHT22;10963;50.934;4.668;2024-01-06T11:06:08;6.40;99.90
21602;DHT22;10963;50.934;4.668;2024-01-06T11:08:48;6.30;99.90
21602;DHT22;10963;50.934;4.668;2024-01-06T11:11:18;6.20;99.90
21602;DHT22;10963;50.934;4.668;2024-01-06T11:13:47;6.10;99.90
21602;DHT22;10963;50.934;4.668;2024-01-06T11:16:34;6.00;99.90
21602;DHT22;10963;50.934;4.668;2024-01-06T11:19:02;6.00;99.90
21602;DHT22;10963;50.934;4.668;2024-01-06T11:21:33;6.00;99.90
21602;DHT22;10963;50.934;4.668;2024-01-06T11:24:15;6.20;99.90
21602;DHT22;10963;50.934;4.668;2024-01-06T11:26:56;6.30;99.90
21602;DHT22;10963;50.934;4.668;2024-01-06T11:29:24;6.40;99.90
21602;DHT22;10963;50.934;4.668;2024-01-06T11:32:29;6.40;99.90
21602;DHT22;10963;50.934;4.668;2024-01-06T11:35:04;6.40;99.90
21602;DHT22;10963;50.934;4.668;2024-01-06T11:42:34;6.60;99.90
21602;DHT22;10963;50.934;4.668;2024-01-06T11:45:05;6.60;99.90
21602;DHT22;10963;50.934;4.668;2024-01-06T11:47:32;6.70;99.90
21602;DHT22;10963;50.934;4.668;2024-01-06T11:49:59;6.60;99.90
21602;DHT22;10963;50.934;4.668;2024-01-06T11:52:26;6.70;99.90
21602;DHT22;10963;50.934;4.668;2024-01-06T11:54:54;6.70;99.90
21602;DHT22;10963;50.934;4.668;2024-01-06T11:57:21;6.70;99.90
21602;DHT22;10963;50.934;4.668;2024-01-06T11:59:48;6.60;99.90
21602;DHT22;10963;50.934;4.668;2024-01-06T12:02:17;6.70;99.90
21602;DHT22;10963;50.934;4.668;2024-01-06T12:04:48;6.80;99.90
21602;DHT22;10963;50.934;4.668;2024-01-06T12:07:15;6.80;99.90
21602;DHT22;10963;50.934;4.668;2024-01-06T12:09:43;6.80;99.90
21602;DHT22;10963;50.934;4.668;2024-01-06T12:12:15;6.90;99.90
21602;DHT22;10963;50.934;4.668;2024-01-06T12:14:44;6.90;99.90
21602;DHT22;10963;50.934;4.668;2024-01-06T12:17:11;7.10;99.90
21602;DHT22;10963;50.934;4.668;2024-01-06T12:19:39;7.20;99.90
21602;DHT22;10963;50.934;4.668;2024-01-06T12:22:09;7.00;99.90
21602;DHT22;10963;50.934;4.668;2024-01-06T12:24:35;7.10;99.90
21602;DHT22;10963;50.934;4.668;2024-01-06T12:27:01;7.00;99.90
21602;DHT22;10963;50.934;4.668;2024-01-06T12:29:28;7.00;99.90
21602;DHT22;10963;50.934;4.668;2024-01-06T12:31:59;7.00;99.90
21602;DHT22;10963;50.934;4.668;2024-01-06T12:34:25;7.00;99.90
21602;DHT22;10963;50.934;4.668;2024-01-06T12:36:55;7.00;99.90
21602;DHT22;10963;50.934;4.668;2024-01-06T12:39:27;7.00;99.90
21602;DHT22;10963;50.934;4.668;2024-01-06T12:41:54;7.00;99.90
21602;DHT22;10963;50.934;4.668;2024-01-06T12:44:23;6.90;99.90
21602;DHT22;10963;50.934;4.668;2024-01-06T12:46:49;6.80;99.90
21602;DHT22;10963;50.934;4.668;2024-01-06T12:49:17;6.90;99.90
21602;DHT22;10963;50.934;4.668;2024-01-06T12:51:45;7.10;99.90
21602;DHT22;10963;50.934;4.668;2024-01-06T12:54:11;6.90;99.90
21602;DHT22;10963;50.934;4.668;2024-01-06T12:56:36;7.00;99.90
21602;DHT22;10963;50.934;4.668;2024-01-06T12:59:02;7.00;99.90
21602;DHT22;10963;50.934;4.668;2024-01-06T13:01:28;7.00;99.90
21602;DHT22;10963;50.934;4.668;2024-01-06T13:03:54;6.80;99.90
21602;DHT22;10963;50.934;4.668;2024-01-06T13:06:20;6.60;99.90
21602;DHT22;10963;50.934;4.668;2024-01-06T13:08:46;6.40;99.90
21602;DHT22;10963;50.934;4.668;2024-01-06T13:11:15;6.60;99.90
21602;DHT22;10963;50.934;4.668;2024-01-06T13:13:40;6.80;99.90
21602;DHT22;10963;50.934;4.668;2024-01-06T13:16:06;6.90;99.90
21602;DHT22;10963;50.934;4.668;2024-01-06T13:18:34;6.80;99.90
21602;DHT22;10963;50.934;4.668;2024-01-06T13:21:02;6.70;99.90
21602;DHT22;10963;50.934;4.668;2024-01-06T13:23:28;6.50;99.90
21602;DHT22;10963;50.934;4.668;2024-01-06T13:25:54;6.50;99.90
21602;DHT22;10963;50.934;4.668;2024-01-06T13:28:20;6.60;99.90
21602;DHT22;10963;50.934;4.668;2024-01-06T13:30:45;6.70;99.90
21602;DHT22;10963;50.934;4.668;2024-01-06T13:33:12;6.70;99.90
21602;DHT22;10963;50.934;4.668;2024-01-06T13:35:37;6.70;99.90
21602;DHT22;10963;50.934;4.668;2024-01-06T13:38:10;6.90;99.90
21602;DHT22;10963;50.934;4.668;2024-01-06T13:40:36;6.70;99.90
21602;DHT22;10963;50.934;4.668;2024-01-06T13:43:04;6.60;99.90
21602;DHT22;10963;50.934;4.668;2024-01-06T13:45:35;6.60;99.90
21602;DHT22;10963;50.934;4.668;2024-01-06T13:48:03;6.50;99.90
21602;DHT22;10963;50.934;4.668;2024-01-06T13:50:29;6.50;99.90
21602;DHT22;10963;50.934;4.668;2024-01-06T13:52:55;6.50;99.90
21602;DHT22;10963;50.934;4.668;2024-01-06T13:55:23;6.50;99.90
21602;DHT22;10963;50.934;4.668;2024-01-06T13:57:49;6.40;99.90
21602;DHT22;10963;50.934;4.668;2024-01-06T14:00:15;6.60;99.90
21602;DHT22;10963;50.934;4.668;2024-01-06T14:02:45;6.60;99.90
21602;DHT22;10963;50.934;4.668;2024-01-06T14:05:15;6.60;99.90
21602;DHT22;10963;50.934;4.668;2024-01-06T14:07:41;6.40;99.90
21602;DHT22;10963;50.934;4.668;2024-01-06T14:10:11;6.30;99.90
21602;DHT22;10963;50.934;4.668;2024-01-06T14:12:38;6.50;99.90
21602;DHT22;10963;50.934;4.668;2024-01-06T14:15:04;6.50;99.90
21602;DHT22;10963;50.934;4.668;2024-01-06T14:17:31;6.50;99.90
21602;DHT22;10963;50.934;4.668;2024-01-06T14:19:57;6.40;99.90
21602;DHT22;10963;50.934;4.668;2024-01-06T14:22:23;6.40;99.90
21602;DHT22;10963;50.934;4.668;2024-01-06T14:24:49;6.40;99.90
21602;DHT22;10963;50.934;4.668;2024-01-06T14:27:18;6.40;99.90
21602;DHT22;10963;50.934;4.668;2024-01-06T14:29:43;6.50;99.90
21602;DHT22;10963;50.934;4.668;2024-01-06T14:32:09;6.50;99.90
21602;DHT22;10963;50.934;4.668;2024-01-06T14:34:35;6.50;99.90
21602;DHT22;10963;50.934;4.668;2024-01-06T14:37:01;6.40;99.90
21602;DHT22;10963;50.934;4.668;2024-01-06T14:39:26;6.30;99.90
21602;DHT22;10963;50.934;4.668;2024-01-06T14:41:55;6.30;99.90
21602;DHT22;10963;50.934;4.668;2024-01-06T14:44:20;6.20;99.90
21602;DHT22;10963;50.934;4.668;2024-01-06T14:46:47;6.30;99.90
21602;DHT22;10963;50.934;4.668;2024-01-06T14:49:15;6.20;99.90
21602;DHT22;10963;50.934;4.668;2024-01-06T14:51:40;6.10;99.90
21602;DHT22;10963;50.934;4.668;2024-01-06T14:54:09;6.20;99.90
21602;DHT22;10963;50.934;4.668;2024-01-06T14:56:40;6.20;99.90
21602;DHT22;10963;50.934;4.668;2024-01-06T14:59:07;6.20;99.90
21602;DHT22;10963;50.934;4.668;2024-01-06T15:01:35;6.10;99.90
21602;DHT22;10963;50.934;4.668;2024-01-06T15:04:03;6.10;99.90
21602;DHT22;10963;50.934;4.668;2024-01-06T15:06:31;6.10;99.90
21602;DHT22;10963;50.934;4.668;2024-01-06T15:08:57;6.10;99.90
21602;DHT22;10963;50.934;4.668;2024-01-06T15:11:25;6.00;99.90
21602;DHT22;10963;50.934;4.668;2024-01-06T15:13:51;6.10;99.90
21602;DHT22;10963;50.934;4.668;2024-01-06T15:16:19;6.10;99.90
21602;DHT22;10963;50.934;4.668;2024-01-06T15:18:45;6.10;99.90
21602;DHT22;10963;50.934;4.668;2024-01-06T15:21:10;5.90;99.90
21602;DHT22;10963;50.934;4.668;2024-01-06T15:23:40;5.90;99.90
21602;DHT22;10963;50.934;4.668;2024-01-06T15:26:06;6.00;99.90
21602;DHT22;10963;50.934;4.668;2024-01-06T15:28:34;6.10;99.90
21602;DHT22;10963;50.934;4.668;2024-01-06T15:31:02;6.10;99.90
21602;DHT22;10963;50.934;4.668;2024-01-06T15:33:28;6.20;99.90
21602;DHT22;10963;50.934;4.668;2024-01-06T15:35:54;6.10;99.90
21602;DHT22;10963;50.934;4.668;2024-01-06T15:38:19;6.00;99.90
21602;DHT22;10963;50.934;4.668;2024-01-06T15:40:45;6.00;99.90
21602;DHT22;10963;50.934;4.668;2024-01-06T15:43:11;6.10;99.90
21602;DHT22;10963;50.934;4.668;2024-01-06T15:45:36;6.10;99.90
21602;DHT22;10963;50.934;4.668;2024-01-06T15:48:05;6.10;99.90
21602;DHT22;10963;50.934;4.668;2024-01-06T15:50:31;6.30;99.90